Time;durP1;ratioP1;P1;durP2;ratioP2;P2;SDS_P1;SDS_P2;PMS_P1;PMS_P2;Temp;Humidity;BMP_temperature;BMP_pressure;BME280_temperature;BME280_humidity;BME280_pressure;Samples;Min_cycle;Max_cycle;Signal;HPM_P1;HPM_P2
2021/05/09 00:02:16;;;;;;;16.00;9.88;;;;;;;;;;4333355;33;20218;-71
2021/05/09 00:04:41;;;;;;;14.13;8.90;;;;;;;;;;4332746;33;20622;-71
2021/05/09 00:07:07;;;;;;;13.13;9.30;;;;;;;;;;4333251;33;20691;-71
2021/05/09 00:09:32;;;;;;;13.32;8.98;;;;;;;;;;4348025;33;20139;-70
2021/05/09 00:11:57;;;;;;;17.00;9.27;;;;;;;;;;4333399;33;20186;-71
2021/05/09 00:14:24;;;;;;;13.00;9.25;;;;;;;;;;4334253;33;20307;-71
2021/05/09 00:16:49;;;;;;;15.13;9.63;;;;;;;;;;4347892;33;20171;-72
2021/05/09 00:19:14;;;;;;;13.65;9.57;;;;;;;;;;4335824;33;20163;-71
2021/05/09 00:21:39;;;;;;;14.43;9.48;;;;;;;;;;4362467;32;20239;-71
2021/05/09 00:24:05;;;;;;;16.80;8.80;;;;;;;;;;4346788;33;20253;-71
2021/05/09 00:26:31;;;;;;;13.73;8.88;;;;;;;;;;4346563;33;20232;-70
2021/05/09 00:28:57;;;;;;;15.25;8.88;;;;;;;;;;4346615;33;20127;-71
2021/05/09 00:31:22;;;;;;;14.83;9.37;;;;;;;;;;4347283;33;20160;-72
2021/05/09 00:33:47;;;;;;;14.45;9.18;;;;;;;;;;4347274;33;20712;-72
2021/05/09 00:36:12;;;;;;;14.95;9.02;;;;;;;;;;4337674;33;20335;-71
2021/05/09 00:38:37;;;;;;;13.15;8.07;;;;;;;;;;4347957;33;20567;-72
2021/05/09 00:41:02;;;;;;;12.65;9.15;;;;;;;;;;4332451;33;20229;-71
2021/05/09 00:43:28;;;;;;;13.07;9.70;;;;;;;;;;4345980;33;20274;-71
2021/05/09 00:45:53;;;;;;;11.25;8.70;;;;;;;;;;4346095;33;20150;-71
2021/05/09 00:48:18;;;;;;;14.20;9.38;;;;;;;;;;4345713;33;20263;-71
2021/05/09 00:50:44;;;;;;;12.90;9.30;;;;;;;;;;4346123;33;20127;-70
2021/05/09 00:53:10;;;;;;;10.63;8.10;;;;;;;;;;4345857;33;20218;-70
2021/05/09 00:55:37;;;;;;;14.95;8.23;;;;;;;;;;4345572;33;20197;-71
2021/05/09 00:58:02;;;;;;;14.20;8.88;;;;;;;;;;4333909;33;20299;-71
2021/05/09 01:00:27;;;;;;;14.50;9.23;;;;;;;;;;4345384;33;20162;-71
2021/05/09 01:02:52;;;;;;;13.70;9.15;;;;;;;;;;4333722;33;20155;-71
2021/05/09 01:05:21;;;;;;;12.65;8.50;;;;;;;;;;4333549;33;20163;-71
2021/05/09 01:07:46;;;;;;;15.48;8.65;;;;;;;;;;4347375;33;20193;-71
2021/05/09 01:10:13;;;;;;;10.80;7.75;;;;;;;;;;4345825;33;20143;-71
2021/05/09 01:12:38;;;;;;;14.30;7.75;;;;;;;;;;4333451;33;20160;-71
2021/05/09 01:15:04;;;;;;;10.90;7.18;;;;;;;;;;4345838;33;20144;-70
2021/05/09 01:17:30;;;;;;;12.02;7.35;;;;;;;;;;4331667;33;20295;-70
2021/05/09 01:19:59;;;;;;;10.55;6.90;;;;;;;;;;4347178;33;20492;-72
2021/05/09 01:22:24;;;;;;;11.63;7.70;;;;;;;;;;4333359;33;20167;-72
2021/05/09 01:24:49;;;;;;;13.02;6.95;;;;;;;;;;4346894;33;20202;-71
2021/05/09 01:27:14;;;;;;;12.17;7.00;;;;;;;;;;4333578;33;20676;-71
2021/05/09 01:29:39;;;;;;;11.95;7.22;;;;;;;;;;4346057;33;20224;-72
2021/05/09 01:32:05;;;;;;;11.80;6.60;;;;;;;;;;4333342;33;20283;-72
2021/05/09 01:34:35;;;;;;;11.38;6.37;;;;;;;;;;4345230;33;20232;-71
2021/05/09 01:37:01;;;;;;;12.85;7.25;;;;;;;;;;4346958;33;20178;-72
2021/05/09 01:39:27;;;;;;;13.88;6.62;;;;;;;;;;4345255;33;20182;-71
2021/05/09 01:41:52;;;;;;;11.15;6.62;;;;;;;;;;4345463;33;20532;-70
2021/05/09 01:44:17;;;;;;;10.57;6.37;;;;;;;;;;4346283;33;20210;-71
2021/05/09 01:46:42;;;;;;;9.45;5.93;;;;;;;;;;4346449;33;20446;-71
2021/05/09 01:49:07;;;;;;;11.35;6.15;;;;;;;;;;4347035;33;20292;-72
2021/05/09 01:51:32;;;;;;;11.65;7.03;;;;;;;;;;4345549;33;20250;-71
2021/05/09 01:53:58;;;;;;;9.63;5.65;;;;;;;;;;4346580;33;20128;-72
2021/05/09 01:56:23;;;;;;;9.32;5.85;;;;;;;;;;4346694;33;20131;-71
2021/05/09 01:58:48;;;;;;;11.23;6.15;;;;;;;;;;4331513;33;20624;-72
2021/05/09 02:01:13;;;;;;;12.37;6.80;;;;;;;;;;4345274;33;20563;-71
2021/05/09 02:03:38;;;;;;;11.40;6.05;;;;;;;;;;4331668;33;20271;-72
2021/05/09 02:06:04;;;;;;;9.20;6.20;;;;;;;;;;4344711;33;20127;-71
2021/05/09 02:08:29;;;;;;;9.23;6.32;;;;;;;;;;4346822;33;20271;-72
2021/05/09 02:10:54;;;;;;;13.38;6.30;;;;;;;;;;4345116;33;20186;-71
2021/05/09 02:13:19;;;;;;;8.88;6.10;;;;;;;;;;4345605;33;20166;-71
2021/05/09 02:15:45;;;;;;;9.52;5.55;;;;;;;;;;4346272;33;20517;-71
2021/05/09 02:18:10;;;;;;;10.43;5.60;;;;;;;;;;4345873;33;20214;-71
2021/05/09 02:20:35;;;;;;;9.73;5.87;;;;;;;;;;4345151;33;20541;-71
2021/05/09 02:23:00;;;;;;;8.90;6.10;;;;;;;;;;4345259;33;20229;-71
2021/05/09 02:25:25;;;;;;;11.00;6.30;;;;;;;;;;4345337;33;20158;-71
2021/05/09 02:27:50;;;;;;;8.32;5.70;;;;;;;;;;4346804;33;20700;-72
2021/05/09 02:30:16;;;;;;;10.13;6.37;;;;;;;;;;4346406;33;20139;-70
2021/05/09 02:32:41;;;;;;;11.63;6.25;;;;;;;;;;4346768;33;20205;-70
2021/05/09 02:35:06;;;;;;;11.07;6.03;;;;;;;;;;4346660;33;20227;-71
2021/05/09 02:37:32;;;;;;;10.80;6.55;;;;;;;;;;4346221;33;20498;-71
2021/05/09 02:39:57;;;;;;;9.43;6.57;;;;;;;;;;4344607;33;20139;-72
2021/05/09 02:42:22;;;;;;;9.90;6.62;;;;;;;;;;4345194;33;20472;-72
2021/05/09 02:44:47;;;;;;;10.45;6.32;;;;;;;;;;4346523;33;20220;-71
2021/05/09 02:47:28;;;;;;;9.60;5.85;;;;;;;;;;4346683;33;20186;-72
2021/05/09 02:49:55;;;;;;;12.13;6.12;;;;;;;;;;4345528;33;20235;-72
2021/05/09 02:52:20;;;;;;;12.65;6.95;;;;;;;;;;4346342;33;20182;-71
2021/05/09 02:54:45;;;;;;;11.48;6.43;;;;;;;;;;4345030;33;20163;-71
2021/05/09 02:57:10;;;;;;;13.40;6.78;;;;;;;;;;4345911;33;20159;-71
2021/05/09 02:59:35;;;;;;;10.68;7.32;;;;;;;;;;4345780;33;20228;-71
2021/05/09 03:02:00;;;;;;;9.45;6.80;;;;;;;;;;4347647;33;20690;-70
2021/05/09 03:04:25;;;;;;;11.88;7.45;;;;;;;;;;4349177;33;20247;-71
2021/05/09 03:06:51;;;;;;;12.15;7.30;;;;;;;;;;4348067;33;20224;-71
2021/05/09 03:09:16;;;;;;;9.48;6.20;;;;;;;;;;4347504;33;20695;-71
2021/05/09 03:11:41;;;;;;;13.55;6.75;;;;;;;;;;4347699;33;20199;-71
2021/05/09 03:14:06;;;;;;;10.25;6.25;;;;;;;;;;4348495;33;20217;-71
2021/05/09 03:16:31;;;;;;;13.73;7.05;;;;;;;;;;4349246;33;20673;-70
2021/05/09 03:18:56;;;;;;;11.75;6.18;;;;;;;;;;4346666;33;20174;-71
2021/05/09 03:21:22;;;;;;;9.40;6.93;;;;;;;;;;4348913;33;20433;-71
2021/05/09 03:23:47;;;;;;;10.48;6.90;;;;;;;;;;4347017;33;20228;-70
2021/05/09 03:26:12;;;;;;;9.93;6.95;;;;;;;;;;4348460;33;20193;-70
2021/05/09 03:28:39;;;;;;;11.15;6.75;;;;;;;;;;4348780;33;20201;-71
2021/05/09 03:31:04;;;;;;;11.50;7.40;;;;;;;;;;4345538;33;20584;-70
2021/05/09 03:33:29;;;;;;;13.97;6.80;;;;;;;;;;4345577;33;20185;-71
2021/05/09 03:35:54;;;;;;;9.07;6.65;;;;;;;;;;4347045;33;20244;-71
2021/05/09 03:38:20;;;;;;;12.37;7.50;;;;;;;;;;4346892;33;20224;-70
2021/05/09 03:40:45;;;;;;;12.63;7.60;;;;;;;;;;4345749;33;20159;-71
2021/05/09 03:43:10;;;;;;;10.30;6.80;;;;;;;;;;4347612;33;20135;-71
2021/05/09 03:45:35;;;;;;;14.82;7.32;;;;;;;;;;4348067;33;20165;-72
2021/05/09 03:48:00;;;;;;;14.02;7.97;;;;;;;;;;4348313;33;20139;-72
2021/05/09 03:50:26;;;;;;;12.02;7.97;;;;;;;;;;4346621;33;20507;-71
2021/05/09 03:52:51;;;;;;;13.00;7.50;;;;;;;;;;4342176;33;20163;-71
2021/05/09 03:55:16;;;;;;;9.45;7.30;;;;;;;;;;4346944;33;20171;-71
2021/05/09 03:57:41;;;;;;;11.35;7.82;;;;;;;;;;4346280;33;20131;-71
2021/05/09 04:00:06;;;;;;;13.20;8.45;;;;;;;;;;4347925;33;20315;-72
2021/05/09 04:02:32;;;;;;;12.18;7.70;;;;;;;;;;4346377;32;20171;-72
2021/05/09 04:04:57;;;;;;;13.73;8.02;;;;;;;;;;4348385;33;20186;-71
2021/05/09 04:07:22;;;;;;;13.05;7.87;;;;;;;;;;4345609;33;20155;-71
2021/05/09 04:09:47;;;;;;;13.48;7.32;;;;;;;;;;4346170;33;20211;-71
2021/05/09 04:12:12;;;;;;;14.93;8.43;;;;;;;;;;4348317;33;20182;-70
2021/05/09 04:14:38;;;;;;;14.05;7.97;;;;;;;;;;4344848;33;20155;-72
2021/05/09 04:17:03;;;;;;;12.13;7.40;;;;;;;;;;4345983;33;20490;-70
2021/05/09 04:19:28;;;;;;;11.32;7.43;;;;;;;;;;4359232;32;20229;-71
2021/05/09 04:21:53;;;;;;;11.10;7.82;;;;;;;;;;4362795;32;20131;-71
2021/05/09 04:24:19;;;;;;;12.40;7.70;;;;;;;;;;4362388;32;20186;-71
2021/05/09 04:26:44;;;;;;;11.65;7.43;;;;;;;;;;4360636;32;20185;-71
2021/05/09 04:29:09;;;;;;;12.00;7.12;;;;;;;;;;4348463;32;20508;-70
2021/05/09 04:31:34;;;;;;;10.23;7.25;;;;;;;;;;4362150;32;20135;-71
2021/05/09 04:34:00;;;;;;;15.18;7.70;;;;;;;;;;4346779;33;20167;-71
2021/05/09 04:36:25;;;;;;;12.98;7.40;;;;;;;;;;4346959;33;20217;-71
2021/05/09 04:38:50;;;;;;;13.43;6.82;;;;;;;;;;4361998;32;20127;-71
2021/05/09 04:41:15;;;;;;;10.57;6.70;;;;;;;;;;4360448;33;20139;-72
2021/05/09 04:43:41;;;;;;;10.35;6.30;;;;;;;;;;4335562;33;20204;-71
2021/05/09 04:46:06;;;;;;;10.55;6.68;;;;;;;;;;4347114;33;20128;-72
2021/05/09 04:48:31;;;;;;;11.63;6.20;;;;;;;;;;4346149;33;20170;-71
2021/05/09 04:50:56;;;;;;;8.52;6.50;;;;;;;;;;4347182;33;20307;-72
2021/05/09 04:53:33;;;;;;;11.55;7.12;;;;;;;;;;4347575;33;20154;-72
2021/05/09 04:56:00;;;;;;;10.60;6.40;;;;;;;;;;4342501;33;20207;-71
2021/05/09 04:58:28;;;;;;;9.20;6.07;;;;;;;;;;4330679;33;20464;-73
2021/05/09 05:00:55;;;;;;;11.32;6.97;;;;;;;;;;4332270;33;20144;-72
2021/05/09 05:03:20;;;;;;;9.00;5.55;;;;;;;;;;4317231;33;20238;-72
2021/05/09 05:05:46;;;;;;;9.38;6.22;;;;;;;;;;4331144;33;20163;-71
2021/05/09 05:08:11;;;;;;;9.25;5.93;;;;;;;;;;4330994;33;20148;-70
2021/05/09 05:10:36;;;;;;;13.45;6.35;;;;;;;;;;4332196;33;20128;-72
2021/05/09 05:13:01;;;;;;;11.52;6.53;;;;;;;;;;4330934;33;20132;-71
2021/05/09 05:15:26;;;;;;;11.00;5.72;;;;;;;;;;4330055;33;20592;-72
2021/05/09 05:17:52;;;;;;;12.32;6.53;;;;;;;;;;4334068;33;20252;-72
2021/05/09 05:20:17;;;;;;;12.57;6.57;;;;;;;;;;4346825;33;20135;-71
2021/05/09 05:22:42;;;;;;;10.05;6.03;;;;;;;;;;4346404;33;20132;-72
2021/05/09 05:25:07;;;;;;;10.57;5.80;;;;;;;;;;4333340;33;20162;-71
2021/05/09 05:27:33;;;;;;;9.80;6.32;;;;;;;;;;4345361;33;20665;-72
2021/05/09 05:29:58;;;;;;;10.45;5.35;;;;;;;;;;4345058;33;20128;-73
2021/05/09 05:32:23;;;;;;;10.75;5.55;;;;;;;;;;4332158;33;20267;-72
2021/05/09 05:34:48;;;;;;;7.43;5.05;;;;;;;;;;4345293;33;20171;-72
2021/05/09 05:37:13;;;;;;;8.02;5.35;;;;;;;;;;4346695;33;20161;-72
2021/05/09 05:39:39;;;;;;;8.82;5.20;;;;;;;;;;4346750;33;20211;-71
2021/05/09 05:42:04;;;;;;;10.27;5.35;;;;;;;;;;4345022;33;20224;-71
2021/05/09 05:44:29;;;;;;;8.43;4.97;;;;;;;;;;4331262;33;20591;-70
2021/05/09 05:46:54;;;;;;;7.43;5.05;;;;;;;;;;4332260;33;20206;-72
2021/05/09 05:49:20;;;;;;;8.52;5.32;;;;;;;;;;4346713;33;20239;-71
2021/05/09 05:51:45;;;;;;;7.10;4.87;;;;;;;;;;4344543;33;20154;-72
2021/05/09 05:54:10;;;;;;;8.85;5.45;;;;;;;;;;4345775;33;20193;-72
2021/05/09 05:56:36;;;;;;;9.45;5.28;;;;;;;;;;4331720;33;20511;-72
2021/05/09 05:59:01;;;;;;;9.52;5.65;;;;;;;;;;4344738;33;20495;-71
2021/05/09 06:01:26;;;;;;;9.43;5.70;;;;;;;;;;4345885;33;20131;-71
2021/05/09 06:03:51;;;;;;;10.77;5.80;;;;;;;;;;4346358;33;20123;-71
2021/05/09 06:06:16;;;;;;;8.02;5.65;;;;;;;;;;4344389;33;20147;-71
2021/05/09 06:08:42;;;;;;;9.63;5.43;;;;;;;;;;4346166;33;20331;-71
2021/05/09 06:11:07;;;;;;;9.02;5.65;;;;;;;;;;4346264;33;20739;-71
2021/05/09 06:13:32;;;;;;;10.77;6.22;;;;;;;;;;4345092;33;20217;-71
2021/05/09 06:15:58;;;;;;;9.88;6.62;;;;;;;;;;4344974;33;20132;-71
2021/05/09 06:18:23;;;;;;;12.45;6.90;;;;;;;;;;4352686;33;20263;-72
2021/05/09 06:20:49;;;;;;;9.75;6.60;;;;;;;;;;4349831;33;20147;-71
2021/05/09 06:23:17;;;;;;;10.50;6.68;;;;;;;;;;4344592;33;20617;-72
2021/05/09 06:25:43;;;;;;;10.27;6.80;;;;;;;;;;4344953;33;20128;-72
2021/05/09 06:28:08;;;;;;;11.55;6.80;;;;;;;;;;4351767;33;20166;-72
2021/05/09 06:30:33;;;;;;;10.30;6.57;;;;;;;;;;4361116;33;20229;-72
2021/05/09 06:32:58;;;;;;;10.90;6.95;;;;;;;;;;4360894;32;20204;-70
2021/05/09 06:35:24;;;;;;;12.00;6.93;;;;;;;;;;4348152;33;20302;-71
2021/05/09 06:37:53;;;;;;;12.93;7.03;;;;;;;;;;4363972;32;20505;-72
2021/05/09 06:40:20;;;;;;;12.77;7.00;;;;;;;;;;4361801;33;20131;-71
2021/05/09 06:42:45;;;;;;;12.05;6.80;;;;;;;;;;4361932;33;20131;-71
2021/05/09 06:45:15;;;;;;;8.65;6.00;;;;;;;;;;4362223;33;20132;-72
2021/05/09 06:47:41;;;;;;;10.40;6.43;;;;;;;;;;4363355;32;20147;-72
2021/05/09 06:50:06;;;;;;;10.77;6.60;;;;;;;;;;4361918;32;20234;-71
2021/05/09 06:52:31;;;;;;;9.48;6.65;;;;;;;;;;4361417;32;20161;-72
2021/05/09 06:54:56;;;;;;;10.77;6.25;;;;;;;;;;4363383;32;20580;-72
2021/05/09 06:57:22;;;;;;;9.10;5.82;;;;;;;;;;4362283;32;20587;-71
2021/05/09 06:59:47;;;;;;;9.80;6.15;;;;;;;;;;4354768;32;20144;-72
2021/05/09 07:02:12;;;;;;;8.50;6.00;;;;;;;;;;4348589;33;20215;-71
2021/05/09 07:04:37;;;;;;;9.80;6.37;;;;;;;;;;4347227;33;20224;-72
2021/05/09 07:07:02;;;;;;;12.32;6.05;;;;;;;;;;4348398;33;20187;-71
2021/05/09 07:09:27;;;;;;;9.13;5.55;;;;;;;;;;4348673;33;20158;-72
2021/05/09 07:11:53;;;;;;;8.25;5.78;;;;;;;;;;4356757;33;20579;-70
2021/05/09 07:14:18;;;;;;;8.13;5.72;;;;;;;;;;4362937;32;20139;-71
2021/05/09 07:16:44;;;;;;;7.87;5.47;;;;;;;;;;4361712;32;20151;-71
2021/05/09 07:19:09;;;;;;;8.32;5.62;;;;;;;;;;4345380;33;20278;-72
2021/05/09 07:21:45;;;;;;;13.88;5.90;;;;;;;;;;4346764;33;20583;-71
2021/05/09 07:24:10;;;;;;;7.68;4.93;;;;;;;;;;4346789;33;20194;-71
2021/05/09 07:26:35;;;;;;;9.15;5.30;;;;;;;;;;4348261;33;20170;-71
2021/05/09 07:29:01;;;;;;;9.05;5.40;;;;;;;;;;4348135;33;20174;-71
2021/05/09 07:31:26;;;;;;;8.82;5.55;;;;;;;;;;4346137;32;20208;-73
2021/05/09 07:33:51;;;;;;;6.73;4.70;;;;;;;;;;4345318;33;20163;-72
2021/05/09 07:36:16;;;;;;;8.93;5.33;;;;;;;;;;4345495;33;20574;-70
2021/05/09 07:38:41;;;;;;;8.68;5.28;;;;;;;;;;4346763;33;20291;-71
2021/05/09 07:41:08;;;;;;;8.23;4.85;;;;;;;;;;4346073;33;20457;-72
2021/05/09 07:43:33;;;;;;;7.75;4.53;;;;;;;;;;4346086;32;20149;-71
2021/05/09 07:45:58;;;;;;;12.10;5.15;;;;;;;;;;4346552;33;20463;-73
2021/05/09 07:48:23;;;;;;;9.07;5.23;;;;;;;;;;4348071;33;20254;-73
2021/05/09 07:50:49;;;;;;;6.53;5.07;;;;;;;;;;4347848;33;20281;-72
2021/05/09 07:53:14;;;;;;;8.82;5.00;;;;;;;;;;4346531;32;20494;-73
2021/05/09 07:55:40;;;;;;;8.38;4.40;;;;;;;;;;4344472;33;20182;-72
2021/05/09 07:58:25;;;;;;;4.97;3.75;;;;;;;;;;4347757;32;20233;-71
2021/05/09 08:00:50;;;;;;;4.20;3.80;;;;;;;;;;4344002;33;20189;-70
2021/05/09 08:03:16;;;;;;;8.73;3.62;;;;;;;;;;4346885;33;20143;-71
2021/05/09 08:05:41;;;;;;;4.47;3.53;;;;;;;;;;4347395;32;20569;-71
2021/05/09 08:08:07;;;;;;;6.50;3.78;;;;;;;;;;4346082;32;20608;-69
2021/05/09 08:10:41;;;;;;;6.03;4.00;;;;;;;;;;4334898;32;20169;-71
2021/05/09 08:13:06;;;;;;;5.37;3.92;;;;;;;;;;4332913;33;20152;-70
2021/05/09 08:15:32;;;;;;;8.85;4.50;;;;;;;;;;4332579;33;20162;-71
2021/05/09 08:17:57;;;;;;;4.50;3.80;;;;;;;;;;4337430;33;20144;-70
2021/05/09 08:20:22;;;;;;;5.75;4.00;;;;;;;;;;4361536;32;20176;-70
2021/05/09 08:22:48;;;;;;;6.32;3.83;;;;;;;;;;4360285;33;20169;-70
2021/05/09 08:25:14;;;;;;;4.62;3.53;;;;;;;;;;4361511;32;20214;-70
2021/05/09 08:27:39;;;;;;;6.18;3.92;;;;;;;;;;4361238;32;20127;-70
2021/05/09 08:30:05;;;;;;;5.80;4.20;;;;;;;;;;4346406;33;20217;-69
2021/05/09 08:32:30;;;;;;;7.32;3.78;;;;;;;;;;4362163;32;20158;-70
2021/05/09 08:34:57;;;;;;;4.07;3.40;;;;;;;;;;4359990;32;20549;-68
2021/05/09 08:37:23;;;;;;;7.62;3.80;;;;;;;;;;4346451;33;20390;-69
2021/05/09 08:39:48;;;;;;;5.43;3.50;;;;;;;;;;4360841;32;20151;-70
2021/05/09 08:42:14;;;;;;;4.75;3.60;;;;;;;;;;4360183;32;20151;-70
2021/05/09 08:44:39;;;;;;;5.03;3.50;;;;;;;;;;4361818;32;20231;-70
2021/05/09 08:47:04;;;;;;;9.00;3.77;;;;;;;;;;4361930;32;20525;-70
2021/05/09 08:49:30;;;;;;;4.82;3.90;;;;;;;;;;4352798;33;20283;-70
2021/05/09 08:51:55;;;;;;;8.43;3.90;;;;;;;;;;4346790;32;20143;-70
2021/05/09 08:54:20;;;;;;;6.20;3.65;;;;;;;;;;4350674;32;20185;-70
2021/05/09 08:56:45;;;;;;;5.15;3.20;;;;;;;;;;4356467;32;20170;-70
2021/05/09 08:59:10;;;;;;;4.93;3.80;;;;;;;;;;4342700;33;20313;-70
2021/05/09 09:01:39;;;;;;;8.20;3.97;;;;;;;;;;4361144;32;20223;-71
2021/05/09 09:04:05;;;;;;;5.90;4.00;;;;;;;;;;4360473;32;20298;-71
2021/05/09 09:06:43;;;;;;;5.57;3.70;;;;;;;;;;4359422;32;20301;-71
2021/05/09 09:09:21;;;;;;;12.37;4.30;;;;;;;;;;4345883;33;20357;-71
2021/05/09 09:11:56;;;;;;;7.00;3.83;;;;;;;;;;4355245;32;20555;-71
2021/05/09 09:14:28;;;;;;;5.60;4.12;;;;;;;;;;4345529;33;20131;-71
2021/05/09 09:17:12;;;;;;;6.37;4.00;;;;;;;;;;4351350;32;20150;-70
2021/05/09 09:19:56;;;;;;;7.60;4.30;;;;;;;;;;4346114;33;20167;-71
2021/05/09 09:22:21;;;;;;;5.32;3.95;;;;;;;;;;4347548;32;20218;-70
2021/05/09 09:25:01;;;;;;;5.80;4.00;;;;;;;;;;4360240;32;20127;-70
2021/05/09 09:27:27;;;;;;;7.22;4.12;;;;;;;;;;4347608;32;20258;-70
2021/05/09 09:30:02;;;;;;;6.68;4.05;;;;;;;;;;4361033;32;20184;-70
2021/05/09 09:32:28;;;;;;;6.07;4.15;;;;;;;;;;4359862;33;20161;-71
2021/05/09 09:34:53;;;;;;;6.15;4.30;;;;;;;;;;4361418;32;20135;-70
2021/05/09 09:37:19;;;;;;;6.05;4.25;;;;;;;;;;4359760;32;20128;-70
2021/05/09 09:39:45;;;;;;;10.10;4.50;;;;;;;;;;4359531;32;20174;-71
2021/05/09 09:42:10;;;;;;;5.75;3.35;;;;;;;;;;4361265;32;20162;-70
2021/05/09 09:44:35;;;;;;;5.93;3.85;;;;;;;;;;4360833;32;20131;-70
2021/05/09 09:47:01;;;;;;;6.70;3.30;;;;;;;;;;4358263;33;20226;-71
2021/05/09 09:49:27;;;;;;;4.18;3.15;;;;;;;;;;4360997;32;20456;-70
2021/05/09 09:51:53;;;;;;;4.62;3.12;;;;;;;;;;4360379;32;20209;-71
2021/05/09 09:54:31;;;;;;;3.42;3.00;;;;;;;;;;4347134;33;20158;-71
2021/05/09 09:56:56;;;;;;;7.97;3.83;;;;;;;;;;4360431;33;20609;-71
2021/05/09 09:59:21;;;;;;;3.83;3.08;;;;;;;;;;4345071;33;20249;-71
2021/05/09 10:01:47;;;;;;;4.23;2.70;;;;;;;;;;4360702;33;20181;-71
2021/05/09 10:04:13;;;;;;;3.62;2.80;;;;;;;;;;4358900;33;20998;-70
2021/05/09 10:06:39;;;;;;;3.12;2.58;;;;;;;;;;4354161;33;20166;-70
2021/05/09 10:09:04;;;;;;;3.70;2.70;;;;;;;;;;4331395;33;20158;-70
2021/05/09 10:11:30;;;;;;;3.97;2.30;;;;;;;;;;4348211;33;20174;-70
2021/05/09 10:13:56;;;;;;;6.32;2.70;;;;;;;;;;4348689;33;20190;-71
2021/05/09 10:16:22;;;;;;;4.30;2.50;;;;;;;;;;4347314;33;20169;-71
2021/05/09 10:18:49;;;;;;;2.53;2.17;;;;;;;;;;4346481;33;20151;-71
2021/05/09 10:21:15;;;;;;;5.07;2.47;;;;;;;;;;4348640;33;20628;-71
2021/05/09 10:23:59;;;;;;;5.28;2.55;;;;;;;;;;4348671;33;20202;-71
2021/05/09 10:26:29;;;;;;;4.78;2.50;;;;;;;;;;4348378;33;20561;-71
2021/05/09 10:28:54;;;;;;;3.85;2.50;;;;;;;;;;4349013;33;20131;-71
2021/05/09 10:31:29;;;;;;;4.03;2.60;;;;;;;;;;4334941;33;20229;-71
2021/05/09 10:33:54;;;;;;;3.30;2.65;;;;;;;;;;4328275;33;20201;-70
2021/05/09 10:36:20;;;;;;;4.15;2.50;;;;;;;;;;4333777;33;20493;-71
2021/05/09 10:39:04;;;;;;;4.57;2.90;;;;;;;;;;4332839;33;20139;-71
2021/05/09 10:41:29;;;;;;;4.60;2.50;;;;;;;;;;4332786;33;20484;-71
2021/05/09 10:43:54;;;;;;;3.78;2.70;;;;;;;;;;4340520;33;20139;-70
2021/05/09 10:46:19;;;;;;;5.10;2.90;;;;;;;;;;4346879;33;20306;-69
2021/05/09 10:48:45;;;;;;;4.97;2.80;;;;;;;;;;4333292;33;20252;-70
2021/05/09 10:51:11;;;;;;;4.10;3.50;;;;;;;;;;4346300;33;20565;-70
2021/05/09 10:53:36;;;;;;;4.85;3.50;;;;;;;;;;4344854;33;20646;-70
2021/05/09 10:56:04;;;;;;;4.43;3.80;;;;;;;;;;4332754;33;20202;-70
2021/05/09 10:58:43;;;;;;;5.95;2.80;;;;;;;;;;4348026;33;20166;-74
2021/05/09 11:01:08;;;;;;;4.47;3.22;;;;;;;;;;4347173;33;20218;-70
2021/05/09 11:03:40;;;;;;;5.55;3.00;;;;;;;;;;4346174;33;20132;-70
2021/05/09 11:06:13;;;;;;;7.40;3.10;;;;;;;;;;4330643;33;20283;-70
2021/05/09 11:08:52;;;;;;;5.90;3.47;;;;;;;;;;4344027;33;20135;-70
2021/05/09 11:11:20;;;;;;;5.53;2.97;;;;;;;;;;4332035;33;20182;-70
2021/05/09 11:14:11;;;;;;;4.22;2.75;;;;;;;;;;4332486;33;20568;-71
2021/05/09 11:16:41;;;;;;;4.32;2.70;;;;;;;;;;4336326;33;20170;-71
2021/05/09 11:19:13;;;;;;;3.90;2.42;;;;;;;;;;4341964;33;20174;-70
2021/05/09 11:21:44;;;;;;;4.30;2.83;;;;;;;;;;4356973;32;20139;-70
2021/05/09 11:24:11;;;;;;;3.83;2.67;;;;;;;;;;4362632;32;20194;-71
2021/05/09 11:26:39;;;;;;;3.60;2.70;;;;;;;;;;4362766;32;20128;-71
2021/05/09 11:29:04;;;;;;;5.45;2.50;;;;;;;;;;4362801;32;20182;-71
2021/05/09 11:31:30;;;;;;;2.55;2.30;;;;;;;;;;4362759;32;20262;-71
2021/05/09 11:33:55;;;;;;;5.10;2.80;;;;;;;;;;4347600;33;20159;-71
2021/05/09 11:36:26;;;;;;;4.67;2.67;;;;;;;;;;4347929;33;20233;-71
2021/05/09 11:38:51;;;;;;;7.00;2.60;;;;;;;;;;4361927;32;20235;-71
2021/05/09 11:41:17;;;;;;;6.05;2.67;;;;;;;;;;4347857;33;20205;-71
2021/05/09 11:44:04;;;;;;;4.68;3.12;;;;;;;;;;4361873;32;20170;-71
2021/05/09 11:46:35;;;;;;;14.07;4.50;;;;;;;;;;4361277;32;20127;-69
2021/05/09 11:49:35;;;;;;;9.77;4.28;;;;;;;;;;4361927;32;20166;-69
2021/05/09 11:52:03;;;;;;;4.82;3.12;;;;;;;;;;4320538;33;21470;-69
2021/05/09 11:54:33;;;;;;;5.75;3.45;;;;;;;;;;4362264;32;20147;-69
2021/05/09 11:56:59;;;;;;;4.40;2.92;;;;;;;;;;4352097;32;20468;-70
2021/05/09 11:59:28;;;;;;;4.35;3.12;;;;;;;;;;4345434;33;20139;-68
2021/05/09 12:01:53;;;;;;;6.57;3.75;;;;;;;;;;4345789;33;20128;-69
2021/05/09 12:04:18;;;;;;;3.67;2.90;;;;;;;;;;4335740;32;20199;-70
2021/05/09 12:06:43;;;;;;;4.70;3.00;;;;;;;;;;4352339;32;20244;-69
2021/05/09 12:09:09;;;;;;;3.85;2.90;;;;;;;;;;4360224;33;20227;-69
2021/05/09 12:11:34;;;;;;;5.22;3.05;;;;;;;;;;4360318;32;20135;-71
2021/05/09 12:13:59;;;;;;;4.37;2.77;;;;;;;;;;4361301;32;20606;-72
2021/05/09 12:16:24;;;;;;;2.87;2.42;;;;;;;;;;4361994;32;20220;-71
2021/05/09 12:18:49;;;;;;;3.43;2.67;;;;;;;;;;4361758;32;20186;-70
2021/05/09 12:21:15;;;;;;;4.13;2.50;;;;;;;;;;4360727;32;20232;-72
2021/05/09 12:23:40;;;;;;;4.43;2.53;;;;;;;;;;4346944;32;20236;-70
2021/05/09 12:26:09;;;;;;;4.90;2.50;;;;;;;;;;4345935;33;20228;-72
2021/05/09 12:28:34;;;;;;;5.37;2.80;;;;;;;;;;4346952;33;20302;-72
2021/05/09 12:31:08;;;;;;;3.25;2.37;;;;;;;;;;4347460;33;20167;-72
2021/05/09 12:33:34;;;;;;;6.00;2.65;;;;;;;;;;4331651;33;20154;-72
2021/05/09 12:36:09;;;;;;;4.05;2.30;;;;;;;;;;4333455;33;20205;-72
2021/05/09 12:38:34;;;;;;;3.83;2.55;;;;;;;;;;4332932;33;20151;-72
2021/05/09 12:41:01;;;;;;;3.57;2.43;;;;;;;;;;4346912;33;20599;-72
2021/05/09 12:43:47;;;;;;;3.45;2.50;;;;;;;;;;4333644;32;20602;-72
2021/05/09 12:46:31;;;;;;;3.58;2.60;;;;;;;;;;4344922;33;20217;-72
2021/05/09 12:49:05;;;;;;;4.68;2.58;;;;;;;;;;4346353;33;20197;-72
2021/05/09 12:51:30;;;;;;;5.47;2.80;;;;;;;;;;4346727;33;20631;-72
2021/05/09 12:53:56;;;;;;;5.68;2.58;;;;;;;;;;4346152;33;20128;-72
2021/05/09 12:56:24;;;;;;;2.90;2.25;;;;;;;;;;4344956;33;20165;-70
2021/05/09 12:59:17;;;;;;;2.80;2.10;;;;;;;;;;4345148;33;20163;-72
2021/05/09 13:01:43;;;;;;;5.97;2.50;;;;;;;;;;4341923;33;20181;-71
2021/05/09 13:04:47;;;;;;;6.90;2.20;;;;;;;;;;4331855;33;20557;-72
2021/05/09 13:07:14;;;;;;;3.28;2.30;;;;;;;;;;4285124;33;20266;-71
2021/05/09 13:09:41;;;;;;;3.95;2.25;;;;;;;;;;4320401;33;20179;-71
2021/05/09 13:12:06;;;;;;;3.00;2.10;;;;;;;;;;4348809;32;20224;-71
2021/05/09 13:14:38;;;;;;;2.62;2.00;;;;;;;;;;4344956;33;20171;-73
2021/05/09 13:17:03;;;;;;;5.75;2.00;;;;;;;;;;4359186;33;20136;-71
2021/05/09 13:19:29;;;;;;;6.13;2.20;;;;;;;;;;4355386;32;20155;-71
2021/05/09 13:21:54;;;;;;;3.17;2.33;;;;;;;;;;4361160;32;20232;-72
2021/05/09 13:24:19;;;;;;;4.97;2.60;;;;;;;;;;4358163;32;20301;-72
2021/05/09 13:26:44;;;;;;;4.67;2.80;;;;;;;;;;4359728;32;20140;-72
2021/05/09 13:29:09;;;;;;;4.87;2.73;;;;;;;;;;4358293;32;20299;-72
2021/05/09 13:31:34;;;;;;;6.27;2.40;;;;;;;;;;4358469;32;20277;-71
2021/05/09 13:34:00;;;;;;;5.10;2.80;;;;;;;;;;4359242;32;20259;-71
2021/05/09 13:36:25;;;;;;;4.50;2.70;;;;;;;;;;4359524;32;20180;-71
2021/05/09 13:38:50;;;;;;;3.60;2.20;;;;;;;;;;4357932;33;20286;-71
2021/05/09 13:41:16;;;;;;;4.23;2.37;;;;;;;;;;4360564;32;20135;-71
2021/05/09 13:43:41;;;;;;;4.30;2.30;;;;;;;;;;4371559;32;20282;-71
2021/05/09 13:46:06;;;;;;;4.30;2.35;;;;;;;;;;4358874;32;20217;-71
2021/05/09 13:48:31;;;;;;;5.10;2.47;;;;;;;;;;4360603;32;20139;-71
2021/05/09 13:50:57;;;;;;;4.70;2.67;;;;;;;;;;4360497;32;20534;-71
2021/05/09 13:53:25;;;;;;;5.45;2.50;;;;;;;;;;4360522;32;20151;-70
2021/05/09 13:55:51;;;;;;;4.68;2.62;;;;;;;;;;4359463;33;20178;-70
2021/05/09 13:58:16;;;;;;;3.70;2.30;;;;;;;;;;4342728;33;20202;-70
2021/05/09 14:00:42;;;;;;;5.05;2.83;;;;;;;;;;4331161;33;20184;-70
2021/05/09 14:03:07;;;;;;;3.92;2.37;;;;;;;;;;4345987;33;20139;-69
2021/05/09 14:05:32;;;;;;;3.17;2.17;;;;;;;;;;4340611;33;20159;-69
2021/05/09 14:07:57;;;;;;;3.97;2.50;;;;;;;;;;4345216;33;20255;-71
2021/05/09 14:10:22;;;;;;;4.50;2.60;;;;;;;;;;4360813;33;20224;-69
2021/05/09 14:12:49;;;;;;;6.22;2.62;;;;;;;;;;4359190;33;20599;-69
2021/05/09 14:15:15;;;;;;;5.70;2.53;;;;;;;;;;4360934;33;20162;-69
2021/05/09 14:17:40;;;;;;;3.72;2.83;;;;;;;;;;4359874;33;20142;-69
2021/05/09 14:20:05;;;;;;;5.05;2.40;;;;;;;;;;4358994;33;20182;-70
2021/05/09 14:22:31;;;;;;;3.10;2.72;;;;;;;;;;4360498;33;20197;-69
2021/05/09 14:24:57;;;;;;;4.40;2.60;;;;;;;;;;4358069;33;20159;-69
2021/05/09 14:27:24;;;;;;;3.62;2.30;;;;;;;;;;4358731;33;20270;-70
2021/05/09 14:29:49;;;;;;;4.47;2.65;;;;;;;;;;4358388;33;20154;-69
2021/05/09 14:32:14;;;;;;;4.43;2.53;;;;;;;;;;4346519;33;20179;-71
2021/05/09 14:34:39;;;;;;;3.85;2.58;;;;;;;;;;4345493;33;20752;-70
2021/05/09 14:37:04;;;;;;;5.07;2.33;;;;;;;;;;4345915;33;20202;-71